Time;durP1;ratioP1;P1;durP2;ratioP2;P2;SDS_P1;SDS_P2;PMS_P1;PMS_P2;Temp;Humidity;BMP_temperature;BMP_pressure;BME280_temperature;BME280_humidity;BME280_pressure;Samples;Min_cycle;Max_cycle;Signal;HPM_P1;HPM_P2
2022/12/26 00:01:13;;;;;;;11.93;10.10;;;4.00;99.90;;;;;;5074436;28;20166;-89
2022/12/26 00:03:39;;;;;;;13.83;9.93;;;4.00;99.90;;;;;;5074190;28;20174;-89
2022/12/26 00:06:15;;;;;;;15.07;10.47;;;4.00;99.90;;;;;;5085579;28;20202;-91
2022/12/26 00:08:42;;;;;;;13.97;10.20;;;4.00;99.90;;;;;;5097881;28;20143;-87
2022/12/26 00:11:08;;;;;;;16.93;11.47;;;4.00;99.90;;;;;;5081371;28;20206;-88
2022/12/26 00:13:34;;;;;;;15.60;10.63;;;4.00;99.90;;;;;;5074866;28;20176;-89
2022/12/26 00:16:06;;;;;;;16.00;11.10;;;4.00;99.90;;;;;;5077193;28;20328;-90
2022/12/26 00:18:31;;;;;;;16.67;10.53;;;3.90;99.90;;;;;;5089048;28;20168;-88
2022/12/26 00:21:00;;;;;;;14.17;10.33;;;3.80;99.90;;;;;;5095617;28;20270;-89
2022/12/26 00:23:25;;;;;;;15.37;10.20;;;3.90;99.90;;;;;;5079273;28;20183;-89
2022/12/26 00:25:51;;;;;;;14.10;9.83;;;3.90;99.90;;;;;;5076825;28;20174;-91
2022/12/26 00:28:17;;;;;;;15.77;10.73;;;3.80;99.90;;;;;;5075194;28;20187;-88
2022/12/26 00:30:43;;;;;;;15.37;10.40;;;3.80;99.90;;;;;;5076886;28;20294;-87
2022/12/26 00:33:09;;;;;;;16.53;10.53;;;3.80;99.90;;;;;;5075923;28;20182;-85
2022/12/26 00:35:35;;;;;;;16.37;10.27;;;3.70;99.90;;;;;;5076243;28;20642;-88
2022/12/26 00:38:00;;;;;;;16.80;11.13;;;3.80;99.90;;;;;;5075801;28;20181;-88
2022/12/26 00:40:26;;;;;;;12.90;10.30;;;3.70;99.90;;;;;;5079856;28;20199;-89
2022/12/26 00:42:52;;;;;;;15.70;10.27;;;3.70;99.90;;;;;;5089385;28;20196;-90
2022/12/26 00:45:18;;;;;;;15.17;10.10;;;3.60;99.90;;;;;;5076801;28;20198;-88
2022/12/26 00:47:44;;;;;;;16.23;11.03;;;3.60;99.90;;;;;;5076000;28;20176;-90
2022/12/26 00:50:10;;;;;;;17.10;10.90;;;3.50;99.90;;;;;;5076565;28;20230;-87
2022/12/26 00:52:36;;;;;;;14.67;10.57;;;3.50;99.90;;;;;;5077332;28;20171;-90
2022/12/26 00:55:02;;;;;;;13.43;10.10;;;3.50;99.90;;;;;;5076363;28;20231;-90
2022/12/26 00:57:28;;;;;;;15.67;10.73;;;3.50;99.90;;;;;;5076391;28;20215;-87
2022/12/26 00:59:53;;;;;;;13.97;9.47;;;3.40;99.90;;;;;;5074669;28;20178;-86
2022/12/26 01:02:37;;;;;;;14.00;10.03;;;3.40;99.90;;;;;;5075880;28;20200;-88
2022/12/26 01:05:05;;;;;;;15.17;9.87;;;3.30;99.90;;;;;;5075159;28;20174;-88
2022/12/26 01:07:35;;;;;;;15.50;10.87;;;3.30;99.90;;;;;;5077590;28;20185;-87
2022/12/26 01:10:04;;;;;;;15.43;11.60;;;3.30;99.90;;;;;;5078208;28;20269;-86
2022/12/26 01:12:30;;;;;;;17.80;11.13;;;3.30;99.90;;;;;;5076123;28;20178;-85
2022/12/26 01:14:59;;;;;;;12.60;10.20;;;3.30;99.90;;;;;;5075627;28;20185;-86
2022/12/26 01:17:27;;;;;;;13.70;9.50;;;3.30;99.90;;;;;;5077846;28;20181;-85
2022/12/26 01:19:54;;;;;;;12.63;8.83;;;3.40;99.90;;;;;;5080674;28;20170;-86
2022/12/26 01:22:21;;;;;;;14.40;9.93;;;3.40;99.90;;;;;;5074493;28;20201;-87
2022/12/26 01:24:47;;;;;;;13.03;8.17;;;3.40;99.90;;;;;;5074019;28;20173;-85
2022/12/26 01:27:12;;;;;;;18.43;9.80;;;3.20;99.90;;;;;;5082862;28;20200;-86
2022/12/26 01:29:38;;;;;;;13.70;9.60;;;3.20;99.90;;;;;;5080285;28;20232;-89
2022/12/26 01:32:05;;;;;;;10.77;9.40;;;3.20;99.90;;;;;;5074445;28;20230;-85
2022/12/26 01:34:31;;;;;;;11.93;8.73;;;3.10;99.90;;;;;;5077123;28;20262;-85
2022/12/26 01:36:56;;;;;;;12.10;8.20;;;3.10;99.90;;;;;;5079204;28;20200;-84
2022/12/26 01:39:22;;;;;;;10.67;8.47;;;3.10;99.90;;;;;;5081320;28;20216;-85
2022/12/26 01:41:48;;;;;;;12.83;8.47;;;3.00;99.90;;;;;;5095841;28;20175;-86
2022/12/26 01:44:51;;;;;;;10.53;7.90;;;3.10;99.90;;;;;;5091290;28;20194;-88
2022/12/26 01:47:20;;;;;;;11.77;8.00;;;3.00;99.90;;;;;;5077566;28;20537;-87
2022/12/26 01:49:51;;;;;;;11.03;8.30;;;3.00;99.90;;;;;;5075136;28;20256;-89
2022/12/26 01:52:26;;;;;;;13.10;8.27;;;3.00;99.90;;;;;;5075844;28;20166;-87
2022/12/26 01:54:54;;;;;;;10.40;8.50;;;3.00;99.90;;;;;;5085752;28;20162;-86
2022/12/26 01:57:25;;;;;;;12.07;8.50;;;3.00;99.90;;;;;;5085896;28;20201;-87
2022/12/26 01:59:53;;;;;;;13.47;8.43;;;3.00;99.90;;;;;;5083850;28;20187;-88
2022/12/26 02:02:20;;;;;;;13.17;9.10;;;2.80;99.90;;;;;;5093646;28;20174;-86
2022/12/26 02:07:35;;;;;;;12.27;8.70;;;2.80;99.90;;;;;;5077111;28;20173;-89
2022/12/26 02:10:02;;;;;;;10.47;7.33;;;2.80;99.90;;;;;;5074990;28;20212;-88
2022/12/26 02:12:31;;;;;;;11.33;7.53;;;2.80;99.90;;;;;;5073476;28;20262;-88
2022/12/26 02:14:58;;;;;;;9.33;7.57;;;2.80;99.90;;;;;;5073652;28;20189;-89
2022/12/26 02:17:25;;;;;;;10.23;8.10;;;2.80;99.90;;;;;;5075136;28;20192;-88
2022/12/26 02:20:21;;;;;;;9.70;7.53;;;2.70;99.90;;;;;;5074831;28;20178;-88
2022/12/26 02:23:34;;;;;;;11.80;7.37;;;2.80;99.90;;;;;;5084653;28;20174;-87
2022/12/26 02:26:42;;;;;;;8.03;6.50;;;2.80;99.90;;;;;;5057636;28;20190;-88
2022/12/26 02:29:23;;;;;;;9.33;7.13;;;2.70;99.90;;;;;;5026711;28;20667;-89
2022/12/26 02:32:27;;;;;;;9.87;6.70;;;2.70;99.90;;;;;;5075996;28;20177;-86
2022/12/26 02:35:17;;;;;;;9.73;7.47;;;2.70;99.90;;;;;;5074485;28;20174;-89
2022/12/26 02:37:49;;;;;;;8.47;6.80;;;2.70;99.90;;;;;;5074276;28;20174;-90
2022/12/26 02:40:37;;;;;;;7.97;6.50;;;2.70;99.90;;;;;;5073455;28;20580;-90
2022/12/26 02:43:09;;;;;;;9.07;6.87;;;2.80;99.90;;;;;;5074067;28;20190;-88
2022/12/26 02:49:02;;;;;;;10.93;6.37;;;2.80;99.90;;;;;;5076404;28;20265;-84
2022/12/26 03:15:04;;;;;;;9.27;6.20;;;2.70;99.90;;;;;;5084192;28;20182;-83
2022/12/26 03:17:36;;;;;;;8.30;6.80;;;2.80;99.90;;;;;;5095147;28;20173;-84
2022/12/26 03:20:09;;;;;;;8.63;6.47;;;2.90;99.90;;;;;;5092583;28;20174;-85
2022/12/26 03:22:58;;;;;;;8.07;6.17;;;2.90;99.90;;;;;;5082671;28;20159;-84
2022/12/26 03:28:39;;;;;;;7.60;5.70;;;2.90;99.90;;;;;;5074542;28;20754;-89
2022/12/26 03:31:09;;;;;;;9.30;6.77;;;2.90;99.90;;;;;;5085253;28;20206;-84
2022/12/26 03:37:17;;;;;;;7.60;5.60;;;2.90;99.90;;;;;;5073516;28;20171;-84
2022/12/26 04:19:25;;;;;;;7.87;6.43;;;2.50;99.90;;;;;;5075039;28;20186;-90
2022/12/26 04:45:09;;;;;;;5.60;4.90;;;2.30;99.90;;;;;;5076395;28;20188;-85
2022/12/26 04:47:35;;;;;;;6.93;5.17;;;2.30;99.90;;;;;;5075749;28;20177;-85
2022/12/26 04:50:13;;;;;;;6.20;5.60;;;2.30;99.90;;;;;;5077466;28;20241;-82
2022/12/26 04:52:59;;;;;;;5.83;5.23;;;2.30;99.90;;;;;;5092920;28;20198;-84
2022/12/26 04:55:28;;;;;;;6.00;5.27;;;2.30;99.90;;;;;;5093013;28;20171;-85
2022/12/26 04:57:55;;;;;;;7.30;5.47;;;2.30;99.90;;;;;;5075643;28;20189;-88
2022/12/26 05:00:23;;;;;;;7.40;6.20;;;2.30;99.90;;;;;;5074915;28;20715;-85
2022/12/26 05:11:24;;;;;;;9.13;6.03;;;2.40;99.90;;;;;;5077821;28;20184;-84
2022/12/26 05:13:54;;;;;;;9.97;6.47;;;2.50;99.90;;;;;;5078783;28;20175;-84
2022/12/26 05:30:17;;;;;;;8.67;6.50;;;2.20;99.90;;;;;;5075573;28;20250;-90
2022/12/26 05:35:27;;;;;;;8.20;6.00;;;2.30;99.90;;;;;;5075252;28;20243;-90
2022/12/26 05:37:54;;;;;;;10.23;6.63;;;2.20;99.90;;;;;;5074239;28;20638;-89
2022/12/26 05:40:20;;;;;;;9.10;6.43;;;2.30;99.90;;;;;;5074193;28;20183;-87
2022/12/26 05:42:46;;;;;;;8.60;7.13;;;2.30;99.90;;;;;;5074059;28;20185;-86
2022/12/26 05:45:12;;;;;;;7.37;6.17;;;2.40;99.90;;;;;;5075538;28;20196;-88
2022/12/26 05:47:37;;;;;;;7.80;6.63;;;2.30;99.90;;;;;;5076500;28;20185;-88
2022/12/26 05:50:04;;;;;;;10.57;6.20;;;2.30;99.90;;;;;;5082591;28;20301;-88
2022/12/26 05:52:30;;;;;;;6.83;5.67;;;2.40;99.90;;;;;;5080759;28;20174;-86
2022/12/26 05:54:56;;;;;;;7.07;6.37;;;2.40;99.90;;;;;;5077840;28;20261;-89
2022/12/26 05:57:21;;;;;;;8.80;6.47;;;2.40;99.90;;;;;;5074185;28;20177;-88
2022/12/26 05:59:47;;;;;;;8.30;6.13;;;2.30;99.90;;;;;;5073336;28;20206;-86
2022/12/26 06:02:13;;;;;;;6.43;5.77;;;2.20;99.90;;;;;;5073215;28;20183;-87
2022/12/26 06:04:39;;;;;;;8.47;6.93;;;2.30;99.90;;;;;;5074242;28;20188;-87
2022/12/26 06:07:04;;;;;;;10.27;7.13;;;2.30;99.90;;;;;;5076735;28;20213;-87
2022/12/26 06:09:30;;;;;;;10.20;7.07;;;2.30;99.90;;;;;;5074769;28;20254;-87
2022/12/26 06:11:56;;;;;;;10.30;6.93;;;2.40;99.90;;;;;;5073850;28;20174;-88
2022/12/26 06:14:22;;;;;;;10.87;7.10;;;2.40;99.90;;;;;;5073191;28;20185;-88
2022/12/26 06:16:49;;;;;;;10.23;6.67;;;2.40;99.90;;;;;;5074309;28;20621;-85
2022/12/26 06:19:15;;;;;;;8.07;6.23;;;2.40;99.90;;;;;;5074571;28;20182;-88
2022/12/26 06:21:40;;;;;;;7.70;6.63;;;2.30;99.90;;;;;;5073068;28;20184;-86
2022/12/26 06:24:07;;;;;;;8.30;5.70;;;2.40;99.90;;;;;;5073302;28;20182;-88
2022/12/26 06:26:33;;;;;;;7.03;6.17;;;2.40;99.90;;;;;;5073003;28;20233;-88
2022/12/26 06:28:59;;;;;;;7.07;5.93;;;2.30;99.90;;;;;;5084288;28;20196;-90
2022/12/26 06:31:25;;;;;;;5.77;5.20;;;2.30;99.90;;;;;;5098135;28;20226;-88
2022/12/26 06:33:54;;;;;;;6.47;5.70;;;2.30;99.90;;;;;;5091364;28;20674;-86
2022/12/26 06:36:22;;;;;;;6.77;5.27;;;2.40;99.90;;;;;;5078573;28;20182;-83
2022/12/26 06:38:48;;;;;;;7.93;5.20;;;2.40;99.90;;;;;;5078882;28;20216;-88
2022/12/26 06:41:17;;;;;;;6.30;5.43;;;2.30;99.90;;;;;;5075833;28;20179;-87
2022/12/26 06:43:44;;;;;;;6.07;5.50;;;2.40;99.90;;;;;;5075318;28;20789;-87
2022/12/26 06:46:14;;;;;;;7.47;6.17;;;2.30;99.90;;;;;;5088248;28;20166;-85
2022/12/26 06:48:39;;;;;;;7.77;6.17;;;2.40;99.90;;;;;;5095585;28;20211;-86
2022/12/26 06:51:09;;;;;;;12.33;7.70;;;2.40;99.90;;;;;;5095004;28;20207;-88
2022/12/26 06:53:35;;;;;;;9.53;7.00;;;2.50;99.90;;;;;;5084327;28;20520;-87
2022/12/26 06:56:11;;;;;;;8.53;6.33;;;2.40;99.90;;;;;;5077590;28;20166;-87
2022/12/26 06:58:37;;;;;;;8.73;6.20;;;2.40;99.90;;;;;;5076192;28;20170;-88
2022/12/26 07:01:17;;;;;;;7.37;6.17;;;2.30;99.90;;;;;;5075349;28;20169;-88
2022/12/26 07:03:44;;;;;;;6.90;5.73;;;2.30;99.90;;;;;;5074942;28;20170;-86
2022/12/26 07:06:24;;;;;;;7.73;6.27;;;2.30;99.90;;;;;;5073947;28;20170;-86
2022/12/26 07:08:56;;;;;;;6.87;6.10;;;2.30;99.90;;;;;;5074234;28;20579;-89
2022/12/26 07:11:24;;;;;;;8.93;6.60;;;2.30;99.90;;;;;;5071958;28;20198;-86
2022/12/26 07:13:51;;;;;;;10.33;6.70;;;2.40;99.90;;;;;;5073979;28;20197;-87
2022/12/26 07:16:17;;;;;;;6.17;5.57;;;2.40;99.90;;;;;;5075207;28;20206;-87
2022/12/26 07:18:43;;;;;;;6.77;5.83;;;2.40;99.90;;;;;;5080768;28;20202;-88
2022/12/26 07:21:12;;;;;;;7.07;6.10;;;2.40;99.90;;;;;;5080222;28;20193;-87
2022/12/26 07:23:39;;;;;;;15.97;7.67;;;2.50;99.90;;;;;;5079112;28;20270;-89
2022/12/26 07:26:05;;;;;;;7.90;6.47;;;2.50;99.90;;;;;;5077743;28;20183;-88
2022/12/26 07:28:51;;;;;;;9.17;6.50;;;2.50;99.90;;;;;;5076451;28;20188;-88
2022/12/26 07:31:18;;;;;;;8.57;6.40;;;2.50;99.90;;;;;;5080027;28;20211;-86
2022/12/26 07:33:48;;;;;;;8.43;5.90;;;2.60;99.90;;;;;;5083403;28;20178;-85
2022/12/26 07:36:17;;;;;;;7.97;6.50;;;2.60;99.90;;;;;;5085651;28;20175;-84
2022/12/26 07:38:42;;;;;;;6.70;5.63;;;2.70;99.90;;;;;;5077804;28;20179;-87
2022/12/26 07:44:08;;;;;;;8.80;5.80;;;2.70;99.90;;;;;;5078611;28;20182;-88
2022/12/26 07:46:37;;;;;;;8.47;6.60;;;2.70;99.90;;;;;;5077017;28;20541;-88
2022/12/26 07:49:03;;;;;;;9.17;6.27;;;2.70;99.90;;;;;;5076475;28;20322;-89
2022/12/26 07:51:28;;;;;;;8.83;6.60;;;2.80;99.90;;;;;;5082085;28;20221;-85
2022/12/26 07:53:54;;;;;;;7.93;6.63;;;2.80;99.90;;;;;;5082654;28;20581;-88
2022/12/26 07:56:20;;;;;;;6.63;5.93;;;2.90;99.90;;;;;;5077428;28;20241;-89
2022/12/26 07:58:50;;;;;;;12.00;6.53;;;2.90;99.90;;;;;;5076641;28;20633;-86
2022/12/26 08:01:16;;;;;;;7.27;6.03;;;2.90;99.90;;;;;;5076645;28;20187;-87
2022/12/26 08:03:42;;;;;;;7.53;5.90;;;3.00;99.90;;;;;;5077647;28;20175;-88
2022/12/26 08:06:11;;;;;;;8.23;6.13;;;3.10;99.90;;;;;;5097472;28;21166;-82
2022/12/26 08:08:37;;;;;;;7.17;6.03;;;3.10;99.90;;;;;;5098759;28;20182;-87
2022/12/26 08:11:06;;;;;;;8.60;5.80;;;3.10;99.90;;;;;;5077551;28;20262;-86
2022/12/26 08:13:33;;;;;;;11.43;7.47;;;3.10;99.90;;;;;;5077328;28;20218;-86
2022/12/26 08:16:03;;;;;;;10.20;7.53;;;3.10;99.90;;;;;;5075643;28;20234;-87
2022/12/26 08:18:29;;;;;;;11.43;6.67;;;3.20;99.90;;;;;;5083355;28;20237;-86
2022/12/26 08:20:58;;;;;;;7.57;6.33;;;3.20;99.90;;;;;;5088972;28;20178;-88
2022/12/26 08:23:24;;;;;;;7.87;6.50;;;3.30;99.90;;;;;;5076336;28;20175;-86
2022/12/26 08:25:50;;;;;;;7.60;6.27;;;3.40;99.90;;;;;;5082887;28;20689;-87
2022/12/26 08:28:15;;;;;;;11.77;7.90;;;3.40;99.90;;;;;;5081817;28;20171;-89
2022/12/26 08:30:41;;;;;;;10.60;7.03;;;3.50;99.90;;;;;;5077634;28;20651;-87
2022/12/26 08:33:09;;;;;;;10.20;7.37;;;3.40;99.90;;;;;;5076956;28;20538;-86
2022/12/26 08:35:36;;;;;;;9.43;6.93;;;3.40;99.90;;;;;;5083491;28;20630;-86
2022/12/26 08:38:02;;;;;;;7.67;5.90;;;3.50;99.90;;;;;;5084914;28;20194;-86
2022/12/26 08:40:28;;;;;;;6.43;5.63;;;3.50;99.90;;;;;;5077686;28;20178;-88
2022/12/26 08:42:54;;;;;;;7.60;6.13;;;3.50;99.90;;;;;;5082723;28;20178;-86
2022/12/26 08:45:20;;;;;;;8.50;6.67;;;3.50;99.90;;;;;;5077645;28;20174;-86
2022/12/26 08:47:45;;;;;;;9.43;6.53;;;3.60;99.90;;;;;;5075550;28;20176;-87
2022/12/26 08:50:11;;;;;;;7.10;5.90;;;3.70;99.90;;;;;;5075230;28;20236;-85
2022/12/26 08:52:38;;;;;;;7.60;6.60;;;3.70;99.90;;;;;;5075639;28;20652;-84
2022/12/26 08:55:04;;;;;;;8.30;6.50;;;3.70;99.90;;;;;;5076236;28;20170;-86
2022/12/26 08:57:30;;;;;;;8.00;6.63;;;3.80;99.90;;;;;;5076366;28;20195;-89
2022/12/26 08:59:55;;;;;;;7.07;6.13;;;3.90;99.90;;;;;;5075851;28;20223;-88
2022/12/26 09:02:21;;;;;;;7.47;5.93;;;4.00;99.90;;;;;;5076571;28;20350;-86
2022/12/26 09:04:47;;;;;;;6.27;5.67;;;4.10;99.90;;;;;;5076652;28;20187;-85
2022/12/26 09:07:13;;;;;;;6.27;5.60;;;4.20;99.90;;;;;;5080467;28;20183;-85
2022/12/26 09:09:38;;;;;;;8.50;5.80;;;4.20;99.90;;;;;;5086026;28;20210;-86
2022/12/26 09:12:05;;;;;;;6.77;6.07;;;4.30;99.90;;;;;;5078843;28;20173;-89
2022/12/26 09:14:33;;;;;;;8.70;6.00;;;4.30;99.90;;;;;;5090995;28;20156;-87
2022/12/26 09:16:59;;;;;;;6.60;5.83;;;4.40;99.90;;;;;;5090121;28;20306;-85
2022/12/26 09:19:28;;;;;;;7.53;6.13;;;4.40;99.90;;;;;;5080418;28;20223;-87
2022/12/26 09:24:41;;;;;;;10.33;6.17;;;4.60;99.90;;;;;;5034864;28;20232;-83
2022/12/26 09:27:07;;;;;;;8.43;6.20;;;4.70;99.90;;;;;;5070535;28;20724;-89
2022/12/26 09:29:33;;;;;;;7.97;6.23;;;4.70;99.90;;;;;;5075657;28;20301;-88
2022/12/26 09:31:59;;;;;;;9.27;6.30;;;4.80;99.90;;;;;;5076975;28;20229;-90
2022/12/26 09:34:25;;;;;;;6.90;6.20;;;4.80;99.90;;;;;;5079545;28;20590;-91
2022/12/26 09:36:52;;;;;;;7.77;6.53;;;4.90;99.90;;;;;;5078857;28;20205;-90
2022/12/26 09:39:18;;;;;;;8.63;6.80;;;5.00;99.90;;;;;;5077228;28;20262;-91
2022/12/26 09:42:04;;;;;;;10.67;7.43;;;5.00;99.90;;;;;;5084368;28;20190;-87
2022/12/26 09:44:45;;;;;;;7.13;6.17;;;5.10;99.90;;;;;;5095212;28;20159;-87
2022/12/26 09:47:17;;;;;;;6.60;5.67;;;5.10;99.90;;;;;;5085808;28;20594;-86
2022/12/26 09:49:52;;;;;;;8.30;5.83;;;5.10;99.90;;;;;;5075561;28;20280;-88
2022/12/26 09:52:23;;;;;;;9.53;6.70;;;5.20;99.90;;;;;;5076132;28;20179;-89
2022/12/26 09:54:58;;;;;;;6.93;6.23;;;5.20;99.90;;;;;;5076023;28;20230;-87
2022/12/26 09:57:40;;;;;;;7.27;6.27;;;5.30;99.90;;;;;;5074786;28;20170;-85
2022/12/26 10:00:14;;;;;;;7.83;6.10;;;5.40;99.90;;;;;;5077200;28;20158;-87
2022/12/26 10:02:48;;;;;;;6.43;5.80;;;5.50;99.90;;;;;;5081790;28;20162;-87
2022/12/26 10:05:14;;;;;;;8.83;6.87;;;5.50;99.90;;;;;;5081674;28;20163;-87
2022/12/26 10:07:45;;;;;;;9.93;6.70;;;5.60;99.90;;;;;;5076356;28;20270;-85
2022/12/26 10:10:24;;;;;;;8.37;6.90;;;5.70;99.90;;;;;;5074338;28;20573;-86
2022/12/26 10:12:50;;;;;;;11.13;6.93;;;5.80;99.90;;;;;;5077362;28;20643;-88
2022/12/26 10:15:52;;;;;;;10.10;7.30;;;5.90;99.90;;;;;;5075805;28;20176;-90
2022/12/26 10:18:50;;;;;;;6.70;5.73;;;6.10;99.90;;;;;;5065096;28;20187;-90
2022/12/26 10:21:43;;;;;;;9.30;6.43;;;6.30;99.90;;;;;;5085087;28;20156;-88
2022/12/26 10:24:17;;;;;;;5.13;4.60;;;6.50;99.90;;;;;;5096663;28;20196;-86
2022/12/26 10:26:56;;;;;;;5.27;4.77;;;6.80;99.90;;;;;;5091941;28;20166;-85
2022/12/26 10:29:37;;;;;;;9.63;7.43;;;7.10;99.90;;;;;;5075687;28;20173;-89
2022/12/26 10:32:20;;;;;;;8.23;6.60;;;7.20;99.90;;;;;;5081128;28;20161;-86
2022/12/26 10:34:48;;;;;;;9.53;6.47;;;7.30;99.90;;;;;;5074857;28;20694;-83
2022/12/26 10:37:31;;;;;;;11.90;6.80;;;7.40;99.90;;;;;;5082055;28;20177;-83
2022/12/26 10:40:20;;;;;;;7.77;6.77;;;7.40;99.90;;;;;;5076992;28;20219;-84
2022/12/26 10:42:52;;;;;;;8.07;6.93;;;7.50;99.90;;;;;;5074257;28;20158;-84
2022/12/26 10:45:33;;;;;;;8.67;6.77;;;7.50;99.90;;;;;;5074709;28;20161;-88
2022/12/26 10:47:59;;;;;;;10.67;8.67;;;7.50;99.90;;;;;;5074426;28;20169;-91
2022/12/26 10:50:28;;;;;;;7.70;6.90;;;7.50;99.90;;;;;;5075207;28;20207;-84
2022/12/26 10:52:56;;;;;;;9.97;6.97;;;7.40;99.90;;;;;;5079638;28;20568;-87
2022/12/26 10:55:27;;;;;;;8.60;6.90;;;7.40;99.90;;;;;;5076009;28;20180;-88
2022/12/26 10:57:53;;;;;;;8.87;7.30;;;7.40;99.90;;;;;;5075688;28;20161;-90
2022/12/26 11:00:26;;;;;;;9.90;7.37;;;7.40;99.90;;;;;;5088126;28;20174;-83
2022/12/26 11:03:11;;;;;;;9.00;7.73;;;7.40;99.90;;;;;;5077066;28;20181;-91
2022/12/26 11:05:53;;;;;;;9.60;7.50;;;7.40;99.90;;;;;;5078172;28;20193;-88
2022/12/26 11:08:22;;;;;;;7.73;6.90;;;7.40;99.90;;;;;;5079246;28;20624;-90
2022/12/26 11:11:20;;;;;;;9.77;7.27;;;7.40;99.90;;;;;;5077560;28;20281;-92
2022/12/26 11:13:58;;;;;;;7.87;6.67;;;7.30;99.90;;;;;;5075770;28;20172;-89
2022/12/26 11:16:28;;;;;;;7.97;6.63;;;7.30;99.90;;;;;;5075575;28;20173;-88
2022/12/26 11:18:55;;;;;;;7.10;6.40;;;7.20;99.90;;;;;;5095347;28;20181;-88
2022/12/26 11:21:24;;;;;;;8.73;6.57;;;7.20;99.90;;;;;;5097409;28;20181;-90
2022/12/26 11:24:13;;;;;;;7.67;6.20;;;7.20;99.90;;;;;;5076783;28;20162;-91
2022/12/26 11:26:39;;;;;;;7.83;6.30;;;7.30;99.90;;;;;;5074406;28;20189;-89
2022/12/26 11:29:10;;;;;;;7.30;6.13;;;7.30;99.90;;;;;;5076314;28;20164;-89
2022/12/26 11:31:39;;;;;;;10.40;6.83;;;7.30;99.90;;;;;;5074859;28;20668;-90
2022/12/26 11:34:14;;;;;;;8.10;6.43;;;7.40;99.90;;;;;;5076538;28;20199;-90
2022/12/26 11:36:47;;;;;;;8.17;6.40;;;7.40;99.90;;;;;;5080602;28;20161;-90
2022/12/26 11:39:26;;;;;;;6.10;5.60;;;7.40;99.90;;;;;;5093237;28;20200;-89
2022/12/26 11:41:54;;;;;;;6.63;5.97;;;7.40;99.90;;;;;;5080766;28;20170;-92
2022/12/26 11:44:30;;;;;;;7.10;6.40;;;7.40;99.90;;;;;;5082306;28;20174;-86
2022/12/26 11:47:17;;;;;;;7.73;6.17;;;7.40;99.90;;;;;;5088745;28;20187;-92
2022/12/26 11:50:09;;;;;;;6.77;5.70;;;7.40;99.90;;;;;;5073155;28;20256;-90
2022/12/26 11:52:48;;;;;;;6.17;5.50;;;7.40;99.90;;;;;;5074773;28;20260;-90
2022/12/26 11:55:32;;;;;;;6.47;5.57;;;7.40;99.90;;;;;;5073728;28;20663;-86
2022/12/26 11:58:07;;;;;;;7.00;6.30;;;7.50;99.90;;;;;;5074629;28;20200;-88
2022/12/26 12:00:58;;;;;;;6.70;6.00;;;7.50;99.90;;;;;;5075938;28;20171;-89
2022/12/26 12:03:50;;;;;;;7.97;5.53;;;7.70;99.90;;;;;;5071940;28;20181;-88
2022/12/26 12:06:59;;;;;;;6.20;5.50;;;7.80;99.90;;;;;;5089639;28;20186;-90
2022/12/26 12:09:44;;;;;;;5.47;4.90;;;7.80;99.90;;;;;;5080531;28;20221;-92
2022/12/26 12:12:32;;;;;;;6.87;5.67;;;7.90;99.90;;;;;;5077678;28;20630;-92
2022/12/26 12:15:23;;;;;;;5.53;5.03;;;7.90;99.90;;;;;;5080807;28;20171;-88
2022/12/26 12:18:11;;;;;;;7.23;6.13;;;8.00;99.90;;;;;;5075760;28;20609;-87
2022/12/26 12:20:58;;;;;;;8.30;6.00;;;8.00;99.90;;;;;;5076657;28;20276;-86
2022/12/26 12:23:39;;;;;;;7.30;6.33;;;8.10;99.90;;;;;;5076800;28;20607;-83
2022/12/26 12:26:13;;;;;;;7.40;6.50;;;8.20;99.90;;;;;;5076560;28;20262;-83
2022/12/26 12:29:21;;;;;;;7.23;6.50;;;8.30;99.90;;;;;;5084505;28;20241;-83
2022/12/26 12:32:06;;;;;;;7.10;6.13;;;8.30;99.90;;;;;;5082131;28;20175;-84
2022/12/26 12:35:16;;;;;;;5.87;5.23;;;8.40;99.90;;;;;;5075789;28;20253;-85
2022/12/26 12:38:19;;;;;;;6.37;5.67;;;8.40;99.90;;;;;;5056684;28;20702;-86
2022/12/26 12:41:06;;;;;;;5.87;4.83;;;8.50;99.90;;;;;;5087878;28;20201;-86
2022/12/26 12:43:56;;;;;;;5.40;4.90;;;8.50;99.90;;;;;;5086717;28;20166;-84
2022/12/26 12:46:44;;;;;;;8.77;5.47;;;8.60;99.90;;;;;;5081908;28;20174;-88
2022/12/26 12:49:31;;;;;;;7.80;4.80;;;8.70;99.90;;;;;;5078820;28;20230;-86
2022/12/26 12:52:15;;;;;;;5.87;5.37;;;8.70;99.90;;;;;;5094634;28;20179;-89
2022/12/26 12:55:22;;;;;;;5.10;4.60;;;8.70;99.90;;;;;;5099200;28;20227;-89
2022/12/26 12:58:32;;;;;;;6.17;5.37;;;8.70;99.90;;;;;;4999957;28;20185;-90
2022/12/26 13:01:04;;;;;;;5.63;5.07;;;8.70;99.90;;;;;;4957868;29;20705;-90
2022/12/26 13:03:45;;;;;;;7.97;5.27;;;8.80;99.90;;;;;;5006545;28;20653;-90
2022/12/26 13:06:14;;;;;;;5.50;5.00;;;8.80;99.90;;;;;;4999776;28;20215;-91
2022/12/26 13:08:45;;;;;;;5.30;4.80;;;8.80;99.90;;;;;;5016368;28;20177;-92
2022/12/26 13:11:22;;;;;;;5.10;4.60;;;8.90;99.90;;;;;;5001024;28;20209;-89
2022/12/26 13:13:53;;;;;;;5.70;5.10;;;8.90;99.90;;;;;;5017687;28;20185;-89
2022/12/26 13:16:23;;;;;;;6.10;5.50;;;9.00;99.90;;;;;;5002993;28;20207;-91
2022/12/26 13:18:57;;;;;;;5.70;5.20;;;9.00;99.90;;;;;;4999599;28;20192;-90
2022/12/26 13:21:25;;;;;;;6.37;5.77;;;9.00;99.90;;;;;;5015347;28;20192;-91
2022/12/26 13:24:29;;;;;;;5.20;4.67;;;9.10;99.90;;;;;;5015734;28;20635;-92
2022/12/26 13:27:13;;;;;;;5.60;5.10;;;9.10;99.90;;;;;;5036501;28;20157;-90
2022/12/26 13:29:44;;;;;;;6.50;5.03;;;9.10;99.90;;;;;;5016881;28;20197;-91
2022/12/26 13:32:23;;;;;;;6.67;5.13;;;9.20;99.90;;;;;;5014678;28;20188;-91
2022/12/26 13:34:51;;;;;;;6.83;4.80;;;9.20;99.90;;;;;;5051626;28;20214;-91
2022/12/26 13:37:38;;;;;;;5.67;5.03;;;9.20;99.90;;;;;;5075532;28;20262;-89
2022/12/26 13:40:09;;;;;;;5.13;4.63;;;9.20;99.90;;;;;;5077055;28;20645;-90
2022/12/26 13:45:41;;;;;;;6.00;5.27;;;9.20;99.90;;;;;;5087130;28;20196;-87
2022/12/26 13:48:16;;;;;;;7.70;5.07;;;9.20;99.90;;;;;;5095918;28;20181;-89
2022/12/26 13:50:52;;;;;;;6.27;4.93;;;9.30;99.90;;;;;;5087298;28;20225;-89
2022/12/26 13:53:24;;;;;;;5.30;4.80;;;9.20;99.90;;;;;;5078293;28;20233;-91
2022/12/26 13:56:12;;;;;;;11.33;5.47;;;9.30;99.90;;;;;;5082500;28;20503;-91
2022/12/26 13:59:06;;;;;;;6.80;4.70;;;9.30;99.90;;;;;;5085202;28;20188;-84
2022/12/26 14:01:57;;;;;;;6.10;5.50;;;9.30;99.90;;;;;;5078901;28;20654;-87
2022/12/26 14:04:29;;;;;;;5.47;4.43;;;9.30;99.90;;;;;;5075833;28;20559;-86
2022/12/26 14:07:07;;;;;;;8.23;5.37;;;9.30;99.90;;;;;;5080379;28;20204;-83
2022/12/26 14:09:48;;;;;;;6.87;4.60;;;9.30;99.90;;;;;;5075335;28;20630;-83
2022/12/26 14:12:21;;;;;;;7.13;4.53;;;9.20;99.90;;;;;;5073459;28;20177;-84
2022/12/26 14:15:06;;;;;;;6.87;3.93;;;9.20;99.90;;;;;;5074305;28;20158;-85
2022/12/26 14:17:47;;;;;;;6.33;4.57;;;9.30;99.90;;;;;;5074284;28;20199;-85
2022/12/26 14:20:40;;;;;;;7.00;4.20;;;9.20;99.90;;;;;;5087701;28;20218;-83
2022/12/26 14:23:16;;;;;;;4.87;4.37;;;9.20;99.90;;;;;;5080042;28;20197;-86
2022/12/26 14:25:47;;;;;;;5.67;3.90;;;9.20;99.90;;;;;;5085032;28;20170;-89
2022/12/26 14:28:40;;;;;;;4.73;3.60;;;9.10;99.90;;;;;;5098965;28;20192;-87
2022/12/26 14:31:24;;;;;;;4.47;3.33;;;9.10;99.90;;;;;;5078434;28;20215;-86
2022/12/26 14:34:11;;;;;;;3.63;2.73;;;9.20;99.90;;;;;;5074721;28;20222;-84
2022/12/26 14:36:58;;;;;;;4.03;3.63;;;9.20;99.90;;;;;;5074425;28;20595;-85
2022/12/26 14:40:01;;;;;;;2.87;2.67;;;9.20;99.90;;;;;;5074525;28;20535;-88
2022/12/26 14:45:33;;;;;;;3.33;2.93;;;9.30;99.90;;;;;;5075279;28;20167;-88
2022/12/26 14:47:59;;;;;;;3.03;2.73;;;9.30;99.90;;;;;;5089819;28;20235;-86
2022/12/26 14:50:31;;;;;;;4.00;3.00;;;9.30;99.90;;;;;;5060746;28;20218;-89
2022/12/26 14:53:23;;;;;;;2.80;2.60;;;9.30;99.90;;;;;;5054125;28;20237;-89
2022/12/26 14:55:53;;;;;;;3.60;3.30;;;9.30;99.90;;;;;;5055014;28;20187;-90
2022/12/26 14:58:31;;;;;;;3.30;3.00;;;9.30;99.90;;;;;;5053804;28;20191;-89
2022/12/26 15:01:23;;;;;;;3.00;2.80;;;9.30;99.90;;;;;;5054895;28;20204;-90
2022/12/26 15:04:07;;;;;;;3.20;2.90;;;9.30;99.90;;;;;;5056008;28;20195;-85
2022/12/26 15:07:01;;;;;;;7.10;3.33;;;9.10;99.90;;;;;;5070343;28;20271;-85
2022/12/26 15:09:57;;;;;;;3.40;3.10;;;9.00;99.90;;;;;;5064735;28;20174;-86
2022/12/26 15:13:00;;;;;;;2.97;2.77;;;8.80;99.90;;;;;;5054986;28;20166;-91
2022/12/26 15:15:38;;;;;;;3.63;2.73;;;8.70;99.90;;;;;;5054830;28;20526;-89
2022/12/26 15:18:16;;;;;;;3.00;2.80;;;8.70;99.90;;;;;;5056211;28;20171;-86
2022/12/26 15:20:44;;;;;;;3.03;2.73;;;8.60;99.90;;;;;;5058836;28;20582;-90
2022/12/26 15:23:37;;;;;;;2.90;2.60;;;8.50;99.90;;;;;;5059010;28;20179;-87
2022/12/26 15:26:28;;;;;;;3.80;3.30;;;8.40;99.90;;;;;;5065784;28;20185;-87
2022/12/26 15:29:13;;;;;;;3.13;2.93;;;8.40;99.90;;;;;;5070907;28;20166;-85
2022/12/26 15:31:56;;;;;;;4.30;3.13;;;8.40;99.90;;;;;;5063074;28;20235;-86
2022/12/26 15:34:48;;;;;;;4.90;3.03;;;8.30;99.90;;;;;;5062522;28;20167;-89
2022/12/26 15:37:26;;;;;;;3.37;3.07;;;8.20;99.90;;;;;;5051326;28;20586;-90
2022/12/26 15:40:15;;;;;;;3.30;2.80;;;8.10;99.90;;;;;;5054851;28;20190;-89
2022/12/26 15:43:18;;;;;;;3.20;2.60;;;8.20;99.90;;;;;;5057110;28;20176;-90
2022/12/26 15:45:50;;;;;;;3.10;2.63;;;8.50;99.90;;;;;;5058113;28;20178;-90